Time;durP1;ratioP1;P1;durP2;ratioP2;P2;SDS_P1;SDS_P2;PMS_P1;PMS_P2;Temp;Humidity;BMP_temperature;BMP_pressure;BME280_temperature;BME280_humidity;BME280_pressure;Samples;Min_cycle;Max_cycle;Signal;HPM_P1;HPM_P2
2023/04/05 00:01:29;;;;;;;8.68;4.57;;;6.00;99.90;;;;;;6250014;22;20080;-93
2023/04/05 00:03:56;;;;;;;10.75;4.80;;;6.00;99.90;;;;;;6277833;22;20012;-91
2023/04/05 00:06:29;;;;;;;9.93;4.68;;;6.00;99.90;;;;;;6250155;22;20039;-92
2023/04/05 00:08:59;;;;;;;10.40;4.63;;;5.90;99.90;;;;;;6278151;22;20073;-93
2023/04/05 00:11:26;;;;;;;11.73;5.05;;;5.80;99.90;;;;;;6249467;22;20015;-92
2023/04/05 00:13:52;;;;;;;8.73;4.43;;;5.80;99.90;;;;;;6250312;22;20019;-90
2023/04/05 00:16:18;;;;;;;9.02;4.28;;;5.80;99.90;;;;;;6277096;22;20016;-93
2023/04/05 00:18:45;;;;;;;8.57;4.63;;;5.70;99.90;;;;;;6249843;22;20015;-92
2023/04/05 00:21:13;;;;;;;8.25;4.65;;;5.70;99.90;;;;;;6250172;22;20016;-91
2023/04/05 00:23:40;;;;;;;8.73;4.43;;;5.70;99.90;;;;;;6277962;22;20092;-93
2023/04/05 00:26:06;;;;;;;7.63;4.35;;;5.60;99.90;;;;;;6250149;22;20019;-92
2023/04/05 00:28:32;;;;;;;9.68;4.70;;;5.60;99.90;;;;;;6276916;22;20077;-92
2023/04/05 00:30:57;;;;;;;8.55;4.60;;;5.50;99.90;;;;;;6277799;22;20032;-93
2023/04/05 00:33:23;;;;;;;10.77;4.78;;;5.50;99.90;;;;;;6249949;22;20628;-92
2023/04/05 00:35:49;;;;;;;7.97;4.53;;;5.40;99.90;;;;;;6250982;22;20016;-92
2023/04/05 00:38:14;;;;;;;8.38;4.78;;;5.40;99.90;;;;;;6249980;22;20012;-92
2023/04/05 00:40:40;;;;;;;9.27;4.80;;;5.40;99.90;;;;;;6277469;22;20097;-92
2023/04/05 00:43:05;;;;;;;9.45;5.15;;;5.30;99.90;;;;;;6277556;22;20087;-92
2023/04/05 00:45:31;;;;;;;8.88;4.35;;;5.30;99.90;;;;;;6277238;22;20012;-92
2023/04/05 00:47:57;;;;;;;8.93;4.93;;;5.30;99.90;;;;;;6250480;22;20016;-92
2023/04/05 00:50:23;;;;;;;12.23;5.25;;;5.30;99.90;;;;;;6277773;22;20012;-93
2023/04/05 00:52:50;;;;;;;10.40;4.82;;;5.20;99.90;;;;;;6277248;22;20019;-92
2023/04/05 00:55:16;;;;;;;10.68;5.40;;;5.20;99.90;;;;;;6277287;22;20019;-92
2023/04/05 00:57:44;;;;;;;9.40;4.95;;;5.20;99.90;;;;;;6277850;22;20019;-93
2023/04/05 01:00:10;;;;;;;9.13;4.78;;;5.10;99.90;;;;;;6250019;22;20047;-92
2023/04/05 01:02:51;;;;;;;10.48;5.43;;;5.10;99.90;;;;;;6250805;22;20022;-94
2023/04/05 01:05:37;;;;;;;12.80;4.95;;;5.10;99.90;;;;;;6276836;22;20016;-92
2023/04/05 01:08:06;;;;;;;10.80;4.80;;;5.00;99.90;;;;;;6249633;22;20027;-93
2023/04/05 01:10:37;;;;;;;10.35;5.13;;;5.00;99.90;;;;;;6250337;22;20443;-93
2023/04/05 01:13:05;;;;;;;11.13;5.72;;;5.00;99.90;;;;;;6249670;22;20092;-92
2023/04/05 01:15:31;;;;;;;8.60;4.80;;;4.90;99.90;;;;;;6249986;22;20054;-92
2023/04/05 01:18:00;;;;;;;12.32;5.00;;;4.90;99.90;;;;;;6250035;22;20103;-92
2023/04/05 01:20:31;;;;;;;9.30;4.60;;;4.90;99.90;;;;;;6249320;22;20012;-92
2023/04/05 01:23:36;;;;;;;8.38;4.55;;;4.90;99.90;;;;;;6250443;22;20016;-92
2023/04/05 01:26:24;;;;;;;10.13;4.97;;;4.80;99.90;;;;;;6250327;22;20051;-93
2023/04/05 01:29:27;;;;;;;8.88;4.97;;;4.80;99.90;;;;;;6276314;22;20027;-92
2023/04/05 01:32:06;;;;;;;10.95;5.03;;;4.70;99.90;;;;;;6277374;22;20023;-93
2023/04/05 01:34:40;;;;;;;9.73;4.85;;;4.70;99.90;;;;;;6276432;22;20015;-93
2023/04/05 01:37:11;;;;;;;11.30;5.10;;;4.60;99.90;;;;;;6277580;22;20784;-93
2023/04/05 01:39:37;;;;;;;8.82;4.90;;;4.60;99.90;;;;;;6250509;22;20061;-93
2023/04/05 01:42:03;;;;;;;10.52;4.80;;;4.60;99.90;;;;;;6249960;22;20008;-92
2023/04/05 01:44:29;;;;;;;11.60;5.07;;;4.50;99.90;;;;;;6252973;22;20016;-92
2023/04/05 01:46:55;;;;;;;11.52;5.15;;;4.50;99.90;;;;;;6253509;22;20317;-93
2023/04/05 01:49:22;;;;;;;9.50;5.00;;;4.50;99.90;;;;;;6252718;22;20012;-93
2023/04/05 01:51:47;;;;;;;9.13;5.03;;;4.40;99.90;;;;;;6253758;22;20015;-92
2023/04/05 01:54:13;;;;;;;9.23;5.18;;;4.40;99.90;;;;;;6253441;22;20342;-92
2023/04/05 01:56:39;;;;;;;8.57;4.90;;;4.40;99.90;;;;;;6253121;22;20015;-93
2023/04/05 01:59:04;;;;;;;9.48;5.13;;;4.30;99.90;;;;;;6280274;22;20053;-92
2023/04/05 02:01:30;;;;;;;9.00;4.85;;;4.20;99.90;;;;;;6280206;22;20015;-92
2023/04/05 02:03:56;;;;;;;8.70;5.03;;;4.20;99.90;;;;;;6280453;22;20020;-92
2023/04/05 02:06:21;;;;;;;9.57;5.05;;;4.20;99.90;;;;;;6280704;22;20493;-92
2023/04/05 02:08:47;;;;;;;10.23;5.50;;;4.10;99.90;;;;;;6280810;22;20020;-93
2023/04/05 02:11:13;;;;;;;8.95;4.55;;;4.10;99.90;;;;;;6252766;22;20519;-91
2023/04/05 02:13:38;;;;;;;9.48;4.93;;;4.10;99.90;;;;;;6253221;22;20022;-92
2023/04/05 02:16:04;;;;;;;10.02;5.13;;;4.00;99.90;;;;;;6280710;22;20109;-92
2023/04/05 02:18:30;;;;;;;9.00;5.05;;;4.00;99.90;;;;;;6252714;22;20024;-92
2023/04/05 02:21:09;;;;;;;9.18;5.32;;;4.00;99.90;;;;;;6280854;22;20012;-93
2023/04/05 02:23:37;;;;;;;9.20;5.00;;;3.90;99.90;;;;;;6279856;22;20379;-93
2023/04/05 02:26:02;;;;;;;10.60;5.22;;;3.90;99.90;;;;;;6253517;22;20015;-92
2023/04/05 02:28:28;;;;;;;11.00;5.20;;;3.90;99.90;;;;;;6253176;22;20093;-92
2023/04/05 02:30:54;;;;;;;10.20;5.47;;;3.80;99.90;;;;;;6253050;22;20031;-93
2023/04/05 02:33:23;;;;;;;9.52;5.10;;;3.80;99.90;;;;;;6253159;22;20028;-92
2023/04/05 02:35:50;;;;;;;8.63;4.88;;;3.80;99.90;;;;;;6253348;22;20016;-93
2023/04/05 02:38:16;;;;;;;11.80;4.85;;;3.70;99.90;;;;;;6252833;22;20337;-93
2023/04/05 02:40:42;;;;;;;8.40;4.70;;;3.70;99.90;;;;;;6252982;22;20090;-92
2023/04/05 02:43:07;;;;;;;9.63;5.15;;;3.70;99.90;;;;;;6280636;22;20016;-91
2023/04/05 02:45:33;;;;;;;10.02;5.10;;;3.60;99.90;;;;;;6279172;22;20019;-91
2023/04/05 02:47:58;;;;;;;11.13;5.35;;;3.60;99.90;;;;;;6253354;22;20023;-92
2023/04/05 02:50:24;;;;;;;10.90;5.55;;;3.60;99.90;;;;;;6280157;22;20313;-92
2023/04/05 02:52:50;;;;;;;9.80;5.18;;;3.50;99.90;;;;;;6252916;22;20065;-92
2023/04/05 02:55:16;;;;;;;10.40;5.38;;;3.50;99.90;;;;;;6251700;22;20015;-93
2023/04/05 02:57:45;;;;;;;9.57;5.30;;;3.50;99.90;;;;;;6251916;22;20321;-93
2023/04/05 03:00:12;;;;;;;8.57;5.20;;;3.40;99.90;;;;;;6278264;22;20016;-93
2023/04/05 03:02:38;;;;;;;7.95;4.90;;;3.40;99.90;;;;;;6279315;22;20015;-93
2023/04/05 03:05:04;;;;;;;10.10;5.50;;;3.40;99.90;;;;;;6251434;22;20039;-93
2023/04/05 03:07:32;;;;;;;10.20;5.20;;;3.30;99.90;;;;;;6278510;22;20020;-93
2023/04/05 03:09:58;;;;;;;8.82;5.18;;;3.30;99.90;;;;;;6251473;22;20012;-93
2023/04/05 03:12:24;;;;;;;9.18;5.00;;;3.30;99.90;;;;;;6278783;22;20452;-93
2023/04/05 03:14:49;;;;;;;9.32;5.30;;;3.20;99.90;;;;;;6250807;22;20012;-92
2023/04/05 03:17:15;;;;;;;9.77;4.88;;;3.20;99.90;;;;;;6251685;22;20015;-92
2023/04/05 03:19:41;;;;;;;12.43;5.28;;;3.20;99.90;;;;;;6251982;22;20035;-93
2023/04/05 03:22:07;;;;;;;10.88;5.30;;;3.10;99.90;;;;;;6252039;22;20023;-93
2023/04/05 03:24:32;;;;;;;9.15;5.07;;;3.10;99.90;;;;;;6251305;22;20014;-93
2023/04/05 03:27:02;;;;;;;11.55;5.90;;;3.10;99.90;;;;;;6251098;22;20081;-93
2023/04/05 03:29:28;;;;;;;9.98;5.63;;;3.10;99.90;;;;;;6278383;22;20023;-93
2023/04/05 03:31:53;;;;;;;10.73;5.30;;;3.00;99.90;;;;;;6251402;22;20080;-93
2023/04/05 03:34:21;;;;;;;10.75;5.70;;;3.00;99.90;;;;;;6251470;22;20018;-92
2023/04/05 03:36:48;;;;;;;10.50;5.40;;;3.00;99.90;;;;;;6278871;22;20050;-92
2023/04/05 03:39:14;;;;;;;10.80;5.13;;;3.00;99.90;;;;;;6278866;22;20023;-92
2023/04/05 03:41:40;;;;;;;9.32;4.95;;;3.00;99.90;;;;;;6278606;22;20015;-93
2023/04/05 03:44:07;;;;;;;9.27;5.25;;;3.00;99.90;;;;;;6251335;22;20012;-94
2023/04/05 03:46:36;;;;;;;11.00;5.43;;;2.90;99.90;;;;;;6250874;22;20018;-92
2023/04/05 03:49:02;;;;;;;10.52;6.00;;;2.90;99.90;;;;;;6250514;22;20015;-95
2023/04/05 03:51:28;;;;;;;10.50;5.90;;;2.90;99.90;;;;;;6251004;22;20011;-93
2023/04/05 03:53:54;;;;;;;9.90;6.03;;;2.90;99.90;;;;;;6278671;22;20038;-93
2023/04/05 03:56:20;;;;;;;12.02;5.88;;;2.90;99.90;;;;;;6277853;22;20008;-95
2023/04/05 03:58:46;;;;;;;10.43;6.00;;;2.80;99.90;;;;;;6278718;22;20068;-94
2023/04/05 04:01:12;;;;;;;10.77;5.90;;;2.80;99.90;;;;;;6251632;22;20016;-96
2023/04/05 04:03:38;;;;;;;11.35;5.68;;;2.80;99.90;;;;;;6253264;22;20332;-88
2023/04/05 04:08:32;;;;;;;10.70;6.03;;;2.70;99.90;;;;;;6229508;23;20027;-93
2023/04/05 04:10:58;;;;;;;11.30;6.05;;;2.70;99.90;;;;;;6223262;23;20048;-91
2023/04/05 04:13:24;;;;;;;12.50;6.40;;;2.70;99.90;;;;;;6193004;23;20039;-87
2023/04/05 04:15:49;;;;;;;12.80;6.22;;;2.70;99.90;;;;;;6191033;23;20460;-90
2023/04/05 04:18:15;;;;;;;11.73;6.35;;;2.60;99.90;;;;;;6191243;23;20471;-91
2023/04/05 04:20:41;;;;;;;10.50;5.75;;;2.60;99.90;;;;;;6245423;23;20074;-89
2023/04/05 04:23:08;;;;;;;10.35;6.05;;;2.50;99.90;;;;;;6246211;23;20367;-88
2023/04/05 04:25:35;;;;;;;10.93;6.45;;;2.50;99.90;;;;;;6219617;23;20019;-88
2023/04/05 04:28:03;;;;;;;12.10;6.53;;;2.50;99.90;;;;;;6219670;23;20008;-91
2023/04/05 04:30:28;;;;;;;12.52;7.03;;;2.50;99.90;;;;;;6219462;23;20012;-91
2023/04/05 04:32:55;;;;;;;10.80;6.22;;;2.50;99.90;;;;;;6246948;23;20023;-91
2023/04/05 04:35:23;;;;;;;10.52;6.43;;;2.40;99.90;;;;;;6220982;23;20019;-91
2023/04/05 04:37:59;;;;;;;12.57;6.43;;;2.40;99.90;;;;;;6220850;23;20491;-91
2023/04/05 04:40:31;;;;;;;11.93;6.25;;;2.40;99.90;;;;;;6221476;23;20039;-94
2023/04/05 04:42:58;;;;;;;14.40;6.93;;;2.40;99.90;;;;;;6221166;23;20083;-93
2023/04/05 04:45:25;;;;;;;11.82;6.53;;;2.30;99.90;;;;;;6220613;23;20057;-93
2023/04/05 04:47:52;;;;;;;10.43;6.55;;;2.30;99.90;;;;;;6248029;23;20095;-93
2023/04/05 04:50:19;;;;;;;11.70;6.78;;;2.20;99.90;;;;;;6220920;23;20008;-93
2023/04/05 04:52:45;;;;;;;12.13;6.95;;;2.20;99.90;;;;;;6247499;23;20020;-93
2023/04/05 04:55:15;;;;;;;14.00;6.80;;;2.20;99.90;;;;;;6220929;23;20043;-94
2023/04/05 04:57:41;;;;;;;12.68;6.40;;;2.20;99.90;;;;;;6221269;23;20012;-92
2023/04/05 05:00:14;;;;;;;12.68;6.68;;;2.10;99.90;;;;;;6246927;23;20020;-93
2023/04/05 05:02:41;;;;;;;10.05;5.97;;;2.10;99.90;;;;;;6248072;23;20039;-92
2023/04/05 05:05:07;;;;;;;10.50;5.88;;;2.10;99.90;;;;;;6247793;23;20020;-93
2023/04/05 05:07:34;;;;;;;12.15;6.40;;;2.00;99.90;;;;;;6247274;23;20448;-94
2023/04/05 05:10:00;;;;;;;9.70;5.75;;;2.00;99.90;;;;;;6221239;23;20044;-93
2023/04/05 05:12:26;;;;;;;11.50;6.30;;;2.00;99.90;;;;;;6220673;23;20027;-94
2023/04/05 05:14:52;;;;;;;11.55;6.40;;;2.00;99.90;;;;;;6221024;23;20016;-94
2023/04/05 05:17:17;;;;;;;12.10;6.97;;;1.90;99.90;;;;;;6245640;23;20436;-92
2023/04/05 05:19:44;;;;;;;12.43;6.78;;;1.90;99.90;;;;;;6220800;23;20027;-94
2023/04/05 05:22:10;;;;;;;11.40;6.60;;;1.90;99.90;;;;;;6247529;23;20016;-94
2023/04/05 05:24:36;;;;;;;11.02;6.28;;;1.80;99.90;;;;;;6221521;23;20050;-94
2023/04/05 05:27:01;;;;;;;11.80;6.65;;;1.80;99.90;;;;;;6247754;23;20019;-94
2023/04/05 05:29:27;;;;;;;11.70;7.10;;;1.80;99.90;;;;;;6220544;23;20066;-94
2023/04/05 05:31:53;;;;;;;11.93;6.88;;;1.80;99.90;;;;;;6247646;23;20008;-93
2023/04/05 05:34:19;;;;;;;12.80;6.82;;;1.80;99.90;;;;;;6247649;23;20047;-94
2023/04/05 05:36:45;;;;;;;11.90;7.07;;;1.70;99.90;;;;;;6247848;23;20008;-93
2023/04/05 05:39:11;;;;;;;14.05;7.03;;;1.70;99.90;;;;;;6247591;23;20094;-93
2023/04/05 05:41:36;;;;;;;12.15;6.75;;;1.70;99.90;;;;;;6222527;23;20066;-94
2023/04/05 05:44:02;;;;;;;12.85;7.60;;;1.70;99.90;;;;;;6221259;23;20023;-94
2023/04/05 05:46:28;;;;;;;11.27;7.13;;;1.70;99.90;;;;;;6247608;23;20027;-93
2023/04/05 05:48:53;;;;;;;13.50;7.70;;;1.70;99.90;;;;;;6247811;23;20014;-94
2023/04/05 05:51:19;;;;;;;12.52;7.57;;;1.70;99.90;;;;;;6222074;23;20012;-94
2023/04/05 05:53:46;;;;;;;14.10;8.02;;;1.60;99.90;;;;;;6248738;23;20020;-94
2023/04/05 05:56:11;;;;;;;14.68;7.65;;;1.60;99.90;;;;;;6249020;23;20012;-93
2023/04/05 05:58:38;;;;;;;13.32;8.35;;;1.60;99.90;;;;;;6221633;23;20098;-94
2023/04/05 06:01:06;;;;;;;16.02;8.82;;;1.60;99.90;;;;;;6247820;23;20023;-93
2023/04/05 06:03:32;;;;;;;17.15;9.18;;;1.60;99.90;;;;;;6247373;23;20019;-93
2023/04/05 06:05:58;;;;;;;14.38;9.50;;;1.60;99.90;;;;;;6221218;23;20052;-93
2023/04/05 06:08:26;;;;;;;16.20;10.40;;;1.60;99.90;;;;;;6220289;23;20091;-91
2023/04/05 06:10:52;;;;;;;18.13;10.48;;;1.60;99.90;;;;;;6221285;23;20040;-94
2023/04/05 06:13:19;;;;;;;18.95;10.23;;;1.60;99.90;;;;;;6247571;23;20076;-93
2023/04/05 06:15:46;;;;;;;18.80;10.43;;;1.60;99.90;;;;;;6245975;23;20016;-93
2023/04/05 06:18:12;;;;;;;15.38;10.20;;;1.60;99.90;;;;;;6245896;23;20016;-94
2023/04/05 06:20:39;;;;;;;18.00;10.50;;;1.60;99.90;;;;;;6247943;23;20017;-95
2023/04/05 06:23:09;;;;;;;16.77;10.48;;;1.60;99.90;;;;;;6219874;23;20008;-92
2023/04/05 06:25:35;;;;;;;16.05;9.63;;;1.60;99.90;;;;;;6221918;23;20387;-92
2023/04/05 06:28:05;;;;;;;18.10;9.60;;;1.60;99.90;;;;;;6221653;23;20024;-94
2023/04/05 06:30:32;;;;;;;16.05;10.73;;;1.60;99.90;;;;;;6248704;23;20087;-93
2023/04/05 06:32:58;;;;;;;16.92;10.13;;;1.70;99.90;;;;;;6222001;23;20020;-93
2023/04/05 06:35:24;;;;;;;15.98;10.30;;;1.70;99.90;;;;;;6221894;23;20456;-94
2023/04/05 06:37:50;;;;;;;14.65;9.90;;;1.70;99.90;;;;;;6221613;23;20020;-93
2023/04/05 06:40:16;;;;;;;14.32;9.98;;;1.70;99.90;;;;;;6222916;23;20012;-93
2023/04/05 06:42:43;;;;;;;19.58;10.55;;;1.80;99.90;;;;;;6249139;23;20016;-94
2023/04/05 06:45:09;;;;;;;15.05;9.88;;;1.80;99.90;;;;;;6224063;23;20023;-93
2023/04/05 06:47:36;;;;;;;18.40;11.70;;;1.80;99.90;;;;;;6248178;23;20024;-92
2023/04/05 06:50:07;;;;;;;14.77;10.45;;;1.90;99.90;;;;;;6249146;23;20024;-95
2023/04/05 06:52:33;;;;;;;15.20;11.10;;;1.90;99.90;;;;;;6221493;23;20020;-93
2023/04/05 06:54:59;;;;;;;16.85;10.10;;;1.90;99.90;;;;;;6222197;23;20016;-93
2023/04/05 06:57:25;;;;;;;15.40;10.30;;;2.10;99.90;;;;;;6222211;23;20062;-96
2023/04/05 06:59:52;;;;;;;14.02;9.73;;;2.10;99.90;;;;;;6248980;23;20023;-90
2023/04/05 07:02:18;;;;;;;15.35;10.93;;;2.20;99.90;;;;;;6222359;23;20020;-94
2023/04/05 07:04:43;;;;;;;16.00;11.05;;;2.30;99.90;;;;;;6224275;23;20012;-95
2023/04/05 07:07:09;;;;;;;17.50;10.65;;;2.40;99.90;;;;;;6252220;23;20020;-95
2023/04/05 07:09:36;;;;;;;16.58;10.15;;;2.50;99.90;;;;;;6249140;23;20017;-92
2023/04/05 07:12:03;;;;;;;15.40;10.15;;;2.60;99.90;;;;;;6221605;23;20022;-96
2023/04/05 07:14:29;;;;;;;15.52;10.57;;;2.60;99.90;;;;;;6248801;23;20020;-93
2023/04/05 07:16:55;;;;;;;15.73;10.80;;;2.70;99.90;;;;;;6248960;23;20012;-95
2023/04/05 07:19:21;;;;;;;16.33;10.80;;;2.80;99.90;;;;;;6220422;23;20020;-94
2023/04/05 07:21:47;;;;;;;14.20;10.10;;;2.90;99.90;;;;;;6248830;23;20016;-93
2023/04/05 07:24:12;;;;;;;17.65;10.75;;;2.90;99.90;;;;;;6221371;23;20015;-93
2023/04/05 07:26:38;;;;;;;14.80;10.63;;;3.00;99.90;;;;;;6247963;23;20040;-93
2023/04/05 07:29:06;;;;;;;14.20;9.98;;;3.10;99.90;;;;;;6248145;23;20008;-93
2023/04/05 07:31:32;;;;;;;16.38;11.00;;;3.20;99.90;;;;;;6220912;23;20023;-94
2023/04/05 07:34:01;;;;;;;14.07;10.27;;;3.30;99.90;;;;;;6220991;23;20340;-91
2023/04/05 07:36:29;;;;;;;16.85;11.20;;;3.40;99.90;;;;;;6247900;23;20149;-94
2023/04/05 07:38:55;;;;;;;15.40;10.45;;;3.50;99.90;;;;;;6220735;23;20379;-91
2023/04/05 07:41:22;;;;;;;16.00;11.70;;;3.60;99.90;;;;;;6219609;23;20095;-92
2023/04/05 07:43:48;;;;;;;14.45;10.57;;;3.60;99.90;;;;;;6220449;23;20020;-94
2023/04/05 07:46:14;;;;;;;16.55;11.13;;;3.70;99.90;;;;;;6220560;23;20023;-93
2023/04/05 07:48:40;;;;;;;15.90;10.77;;;3.80;99.90;;;;;;6220739;23;20070;-90
2023/04/05 07:51:07;;;;;;;14.90;10.68;;;3.90;99.90;;;;;;6248640;23;20016;-93
2023/04/05 07:53:33;;;;;;;14.50;10.20;;;4.00;99.90;;;;;;6248287;23;20016;-94
2023/04/05 07:56:06;;;;;;;14.18;8.45;;;4.10;99.90;;;;;;6221439;23;20012;-93
2023/04/05 07:58:33;;;;;;;14.27;9.18;;;4.30;99.90;;;;;;6221496;23;20383;-93
2023/04/05 08:01:03;;;;;;;14.50;9.05;;;4.30;99.90;;;;;;6247968;23;20048;-93
2023/04/05 08:03:30;;;;;;;13.88;10.35;;;4.40;99.90;;;;;;6221016;23;20043;-93
2023/04/05 08:05:57;;;;;;;13.10;9.80;;;4.50;99.90;;;;;;6248278;23;20043;-93
2023/04/05 08:08:24;;;;;;;11.60;7.00;;;4.60;99.90;;;;;;6247313;23;20012;-93
2023/04/05 08:10:49;;;;;;;14.00;9.63;;;4.70;99.90;;;;;;6221349;23;20024;-93
2023/04/05 08:13:15;;;;;;;14.48;9.48;;;4.90;99.90;;;;;;6220154;23;20023;-92
2023/04/05 08:15:41;;;;;;;14.43;10.07;;;4.90;99.90;;;;;;6221016;23;20012;-96
2023/04/05 08:18:06;;;;;;;13.20;9.30;;;5.00;99.90;;;;;;6221388;23;20024;-94
2023/04/05 08:20:37;;;;;;;13.38;8.65;;;5.10;99.90;;;;;;6247091;23;20495;-92
2023/04/05 08:23:04;;;;;;;11.98;7.30;;;5.20;99.90;;;;;;6247381;23;20017;-94
2023/04/05 08:25:29;;;;;;;11.63;7.93;;;5.30;99.90;;;;;;6220149;23;20012;-93
2023/04/05 08:27:55;;;;;;;11.00;7.55;;;5.40;99.90;;;;;;6246454;23;20090;-93
2023/04/05 08:30:22;;;;;;;10.70;7.80;;;5.50;99.90;;;;;;6244815;23;20012;-92
2023/04/05 08:32:48;;;;;;;15.20;8.15;;;5.60;99.90;;;;;;6247428;23;20012;-92
2023/04/05 08:35:14;;;;;;;11.45;8.65;;;5.70;99.90;;;;;;6247582;23;20018;-92
2023/04/05 08:37:40;;;;;;;12.95;8.25;;;5.80;99.90;;;;;;6247068;23;20063;-92
2023/04/05 08:40:07;;;;;;;12.77;8.77;;;5.90;99.90;;;;;;6220644;23;20444;-92
2023/04/05 08:42:41;;;;;;;12.15;8.23;;;6.00;99.90;;;;;;6220396;23;20079;-92
2023/04/05 08:45:13;;;;;;;11.63;8.25;;;6.10;99.90;;;;;;6219965;23;20047;-92
2023/04/05 08:47:40;;;;;;;12.10;8.38;;;6.30;99.90;;;;;;6246317;23;20068;-92
2023/04/05 08:50:09;;;;;;;11.07;7.38;;;6.40;99.90;;;;;;6220135;23;20055;-92
2023/04/05 08:52:38;;;;;;;10.88;7.30;;;6.50;99.90;;;;;;6220219;23;20015;-92
2023/04/05 08:55:05;;;;;;;11.80;6.05;;;6.60;99.90;;;;;;6220010;23;20066;-92
2023/04/05 08:57:33;;;;;;;10.57;7.47;;;6.60;99.90;;;;;;6246251;23;20117;-92
2023/04/05 09:00:02;;;;;;;10.57;5.50;;;6.70;99.90;;;;;;6246656;23;20444;-92
2023/04/05 09:02:28;;;;;;;10.43;6.43;;;6.90;99.90;;;;;;6219575;23;20044;-89
2023/04/05 09:04:54;;;;;;;11.77;6.30;;;6.90;99.30;;;;;;6218608;23;20103;-94
2023/04/05 09:07:20;;;;;;;11.18;5.18;;;7.00;98.80;;;;;;6219489;23;20050;-91
2023/04/05 09:09:50;;;;;;;9.68;6.20;;;7.10;98.10;;;;;;6220213;23;20012;-91
2023/04/05 09:12:24;;;;;;;9.98;6.10;;;7.20;97.80;;;;;;6218770;23;20089;-92
2023/04/05 09:14:51;;;;;;;10.38;6.25;;;7.40;98.40;;;;;;6219394;23;20012;-91
2023/04/05 09:17:20;;;;;;;9.55;6.57;;;7.50;98.60;;;;;;6219395;23;20054;-91
2023/04/05 09:19:49;;;;;;;9.93;5.53;;;7.60;98.90;;;;;;6218415;23;20016;-91
2023/04/05 09:22:17;;;;;;;9.35;6.35;;;7.60;98.60;;;;;;6218811;23;20012;-91
2023/04/05 09:24:45;;;;;;;8.05;4.90;;;7.70;98.80;;;;;;6246168;23;20016;-92
2023/04/05 09:27:15;;;;;;;8.30;4.97;;;7.80;98.30;;;;;;6218106;23;20012;-91
2023/04/05 09:29:43;;;;;;;9.25;5.80;;;7.90;98.00;;;;;;6219118;23;20008;-92
2023/04/05 09:32:10;;;;;;;9.88;6.55;;;8.00;98.00;;;;;;6244183;23;20409;-92
2023/04/05 09:34:37;;;;;;;13.48;6.20;;;8.10;98.90;;;;;;6218376;23;20024;-92
2023/04/05 09:37:14;;;;;;;10.68;6.00;;;8.20;99.40;;;;;;6246426;23;20043;-90
2023/04/05 09:39:40;;;;;;;8.98;5.63;;;8.30;99.80;;;;;;6245453;23;20012;-91
2023/04/05 09:42:12;;;;;;;8.35;5.45;;;8.30;99.70;;;;;;6245769;23;20062;-91
2023/04/05 09:45:00;;;;;;;8.65;6.05;;;8.40;98.90;;;;;;6219715;23;20019;-91
2023/04/05 09:47:30;;;;;;;7.30;4.10;;;8.50;99.00;;;;;;6245299;23;20051;-91
2023/04/05 09:49:56;;;;;;;9.15;5.32;;;8.60;98.40;;;;;;6219095;23;20340;-92
2023/04/05 09:52:27;;;;;;;9.23;4.15;;;8.70;98.40;;;;;;6218832;23;20016;-90
2023/04/05 09:54:55;;;;;;;9.43;4.97;;;8.70;97.10;;;;;;6219131;23;20390;-95
2023/04/05 09:57:26;;;;;;;7.60;4.13;;;8.80;97.00;;;;;;6244766;23;20059;-90
2023/04/05 09:59:52;;;;;;;8.32;4.20;;;8.90;96.90;;;;;;6218520;23;20016;-90
2023/04/05 10:02:18;;;;;;;9.23;4.80;;;9.00;95.00;;;;;;6244757;23;20095;-89
2023/04/05 10:04:45;;;;;;;7.65;4.30;;;9.10;95.40;;;;;;6220258;23;20046;-92
2023/04/05 10:07:12;;;;;;;9.82;3.95;;;9.10;94.50;;;;;;6221104;23;20043;-92
2023/04/05 10:09:40;;;;;;;9.57;3.75;;;9.20;93.00;;;;;;6220900;23;20016;-91
2023/04/05 10:12:07;;;;;;;9.73;4.88;;;9.20;92.30;;;;;;6247572;23;20020;-93
2023/04/05 10:14:35;;;;;;;8.68;5.47;;;9.30;93.40;;;;;;6248630;23;20008;-93
2023/04/05 10:17:16;;;;;;;10.55;5.40;;;9.30;94.70;;;;;;6249447;23;20023;-95
2023/04/05 10:19:54;;;;;;;9.00;4.55;;;9.40;95.90;;;;;;6251525;23;20035;-96
2023/04/05 10:22:27;;;;;;;10.50;4.75;;;9.50;94.00;;;;;;6222558;23;20023;-95
2023/04/05 10:24:58;;;;;;;9.75;5.57;;;9.50;92.70;;;;;;6222005;23;20022;-94
2023/04/05 10:27:31;;;;;;;9.40;4.85;;;9.60;92.50;;;;;;6222606;23;20095;-94
2023/04/05 10:30:05;;;;;;;11.55;5.78;;;9.70;93.30;;;;;;6247917;23;20069;-96
2023/04/05 10:32:36;;;;;;;;;;;9.80;94.10;;;;;;6223034;23;20023;-95
2023/04/05 10:35:13;;;;;;;8.18;4.95;;;9.70;91.50;;;;;;6222452;23;19964;-96
2023/04/05 10:37:51;;;;;;;8.68;5.28;;;9.80;94.10;;;;;;6248896;23;20059;-95
2023/04/05 10:40:21;;;;;;;8.27;5.28;;;10.00;95.10;;;;;;6248755;23;20058;-95
2023/04/05 10:42:50;;;;;;;8.88;5.40;;;10.10;95.70;;;;;;6220679;23;20016;-95
2023/04/05 10:45:21;;;;;;;9.70;5.07;;;10.10;95.30;;;;;;6248891;23;20037;-92
2023/04/05 10:47:52;;;;;;;7.35;5.00;;;10.20;95.70;;;;;;6219474;23;20023;-95
2023/04/05 10:50:22;;;;;;;7.85;4.78;;;10.30;95.60;;;;;;6219334;23;20082;-93
2023/04/05 10:52:49;;;;;;;9.05;4.22;;;10.40;95.60;;;;;;6220369;23;20054;-92
2023/04/05 10:55:15;;;;;;;9.30;5.40;;;10.50;94.30;;;;;;6218662;23;20467;-93
2023/04/05 10:57:43;;;;;;;9.07;5.10;;;10.60;95.20;;;;;;6218793;23;20020;-93
2023/04/05 11:00:10;;;;;;;8.93;4.93;;;10.70;95.20;;;;;;6218589;23;20095;-94
2023/04/05 11:02:36;;;;;;;9.27;5.55;;;10.70;95.40;;;;;;6219222;23;20051;-93
2023/04/05 11:05:03;;;;;;;10.07;5.72;;;10.80;96.50;;;;;;6246086;23;20012;-93
2023/04/05 11:07:42;;;;;;;7.53;4.25;;;10.90;97.30;;;;;;6247579;23;20479;-94
2023/04/05 11:10:17;;;;;;;8.38;5.30;;;11.00;96.30;;;;;;6245860;23;20091;-94
2023/04/05 11:12:45;;;;;;;7.05;4.97;;;11.10;96.10;;;;;;6218552;23;20061;-93
2023/04/05 11:15:30;;;;;;;7.65;5.20;;;11.20;97.10;;;;;;6218056;23;20073;-92
2023/04/05 11:18:10;;;;;;;7.75;4.40;;;11.30;96.70;;;;;;6218409;23;20051;-93
2023/04/05 11:20:51;;;;;;;8.35;5.25;;;11.40;96.20;;;;;;6219344;23;20500;-92
2023/04/05 11:23:19;;;;;;;9.50;5.72;;;11.50;97.10;;;;;;6246969;23;20030;-93
2023/04/05 11:26:01;;;;;;;7.40;4.97;;;11.50;97.50;;;;;;6221409;23;20023;-95
2023/04/05 11:28:30;;;;;;;7.67;5.10;;;11.70;98.20;;;;;;6220979;23;20031;-94
2023/04/05 11:30:57;;;;;;;7.10;5.28;;;11.80;98.50;;;;;;6221292;23;20318;-94
2023/04/05 11:33:35;;;;;;;7.43;4.80;;;11.90;98.60;;;;;;6220558;23;20016;-93
2023/04/05 11:36:01;;;;;;;6.78;5.05;;;12.00;97.30;;;;;;6221359;23;20336;-94
2023/04/05 11:38:27;;;;;;;8.40;5.60;;;12.00;97.20;;;;;;6221207;23;20043;-93
2023/04/05 11:41:11;;;;;;;7.72;4.32;;;12.10;97.80;;;;;;6220916;23;20467;-93
2023/04/05 11:43:37;;;;;;;7.70;5.18;;;12.10;94.70;;;;;;6221426;23;20020;-94
2023/04/05 11:46:04;;;;;;;9.40;5.22;;;12.20;95.50;;;;;;6220195;23;20035;-92
2023/04/05 11:48:30;;;;;;;8.32;5.03;;;12.20;94.60;;;;;;6247899;23;20074;-94
2023/04/05 11:50:56;;;;;;;7.50;5.05;;;12.30;96.20;;;;;;6221260;23;20016;-93
2023/04/05 11:53:22;;;;;;;7.15;4.95;;;12.50;97.00;;;;;;6220875;23;20127;-93
2023/04/05 11:55:50;;;;;;;8.27;4.78;;;12.50;97.80;;;;;;6221169;23;20019;-93
2023/04/05 11:58:23;;;;;;;8.05;4.40;;;12.60;97.50;;;;;;6221103;23;20440;-94
2023/04/05 12:00:59;;;;;;;7.50;4.32;;;12.60;94.50;;;;;;6220894;23;20063;-94
2023/04/05 12:03:27;;;;;;;9.00;4.68;;;12.70;92.80;;;;;;6248058;23;20012;-94
2023/04/05 12:05:54;;;;;;;7.18;4.53;;;12.70;93.70;;;;;;6220525;23;20020;-93
2023/04/05 12:08:21;;;;;;;7.50;4.28;;;12.70;93.90;;;;;;6220722;23;20087;-92
2023/04/05 12:10:57;;;;;;;9.02;4.85;;;12.70;92.00;;;;;;6247192;23;20027;-92
2023/04/05 12:13:32;;;;;;;7.47;4.70;;;12.70;91.40;;;;;;6247703;23;20012;-94
2023/04/05 12:16:06;;;;;;;7.70;4.55;;;12.70;93.80;;;;;;6221386;23;20016;-94
2023/04/05 12:18:34;;;;;;;7.60;4.90;;;12.70;93.10;;;;;;6220892;23;20027;-93
2023/04/05 12:21:05;;;;;;;9.23;4.90;;;12.80;93.50;;;;;;6247815;23;20013;-93
2023/04/05 12:23:31;;;;;;;7.72;4.95;;;12.80;94.30;;;;;;6247426;23;20091;-94
2023/04/05 12:25:58;;;;;;;8.40;4.60;;;12.90;94.00;;;;;;6246545;23;20016;-94
2023/04/05 12:28:24;;;;;;;7.90;4.55;;;13.00;93.50;;;;;;6220233;23;20023;-95
2023/04/05 12:30:56;;;;;;;8.05;5.50;;;13.00;90.70;;;;;;6221284;23;20012;-94
2023/04/05 12:33:31;;;;;;;11.38;4.78;;;13.00;92.70;;;;;;6219727;23;20020;-92
2023/04/05 12:35:57;;;;;;;7.95;4.63;;;13.10;93.40;;;;;;6244695;23;20556;-92
2023/04/05 12:38:28;;;;;;;9.73;5.10;;;13.10;93.70;;;;;;6220071;23;20015;-93
2023/04/05 12:40:53;;;;;;;8.00;5.20;;;13.30;94.50;;;;;;6219911;23;20020;-93
2023/04/05 12:43:19;;;;;;;7.28;4.78;;;13.40;95.30;;;;;;6246440;23;20012;-93
2023/04/05 12:45:46;;;;;;;7.40;4.75;;;13.50;96.00;;;;;;6246837;23;20052;-91
2023/04/05 12:48:24;;;;;;;8.07;4.93;;;13.60;96.60;;;;;;6218878;23;20011;-92
2023/04/05 12:50:50;;;;;;;7.60;5.03;;;13.70;97.20;;;;;;6246287;23;20008;-92
2023/04/05 12:53:19;;;;;;;7.45;5.13;;;13.80;97.20;;;;;;6220150;23;20020;-94
2023/04/05 12:55:52;;;;;;;7.32;4.57;;;13.80;97.10;;;;;;6221962;23;20016;-95